createdAt,value
2022-08-03T00:00:50.660Z,89.5
2022-08-03T00:01:56.863Z,89.5
2022-08-03T00:03:03.089Z,90
2022-08-03T00:04:09.255Z,90
2022-08-03T00:05:15.452Z,90
2022-08-03T00:06:21.655Z,89.5
2022-08-03T00:07:27.857Z,89.5
2022-08-03T00:08:34.050Z,90
2022-08-03T00:09:40.243Z,90
2022-08-03T00:10:46.448Z,90
2022-08-03T00:11:52.651Z,90.5
2022-08-03T00:12:58.884Z,90
2022-08-03T00:14:05.063Z,90.5
2022-08-03T00:15:11.262Z,91
2022-08-03T00:16:16.466Z,91
2022-08-03T00:17:22.672Z,91.5
2022-08-03T00:18:28.873Z,91
2022-08-03T00:19:35.074Z,91.5
2022-08-03T00:20:41.260Z,91.5
2022-08-03T00:21:47.467Z,92
2022-08-03T00:22:53.658Z,92
2022-08-03T00:23:59.860Z,92.5
2022-08-03T00:25:06.051Z,92.5
2022-08-03T00:26:12.257Z,92.5
2022-08-03T00:27:18.465Z,92.5
2022-08-03T00:28:24.657Z,92
2022-08-03T00:29:30.872Z,92
2022-08-03T00:30:37.065Z,91.5
2022-08-03T00:31:43.258Z,92
2022-08-03T00:32:49.472Z,92
2022-08-03T00:33:55.672Z,92.5
2022-08-03T00:35:01.867Z,92
2022-08-03T00:36:08.076Z,92
2022-08-03T00:37:14.284Z,92.5
2022-08-03T00:38:20.482Z,92.5
2022-08-03T00:39:26.683Z,92.5
2022-08-03T00:40:32.879Z,93
2022-08-03T00:41:39.095Z,93
2022-08-03T00:42:45.301Z,93
2022-08-03T00:43:51.503Z,93
2022-08-03T00:44:57.708Z,93
2022-08-03T00:46:03.938Z,92.5
2022-08-03T00:47:10.107Z,92.5
2022-08-03T00:48:15.325Z,92.5
2022-08-03T00:49:21.530Z,92.5
2022-08-03T00:50:27.730Z,93
2022-08-03T00:51:33.939Z,93
2022-08-03T00:52:40.136Z,93
2022-08-03T00:53:46.352Z,93
2022-08-03T00:54:52.538Z,93.5
2022-08-03T00:55:58.738Z,94
2022-08-03T00:57:04.970Z,94
2022-08-03T00:58:11.169Z,94.5
2022-08-03T00:59:17.381Z,94.5
2022-08-03T01:00:23.591Z,94.5
2022-08-03T01:01:29.820Z,94.5
2022-08-03T01:02:36.004Z,94.5
2022-08-03T01:03:42.258Z,93.5
2022-08-03T01:04:48.417Z,93.5
2022-08-03T01:05:54.645Z,92.5
2022-08-03T01:07:00.817Z,92
2022-08-03T01:08:07.053Z,90.5
2022-08-03T01:09:13.234Z,90.5
2022-08-03T01:10:19.447Z,91
2022-08-03T01:11:25.652Z,91.5
2022-08-03T01:12:31.869Z,91.5
2022-08-03T01:13:38.066Z,92
2022-08-03T01:14:44.287Z,91.5
2022-08-03T01:15:50.489Z,91.5
2022-08-03T01:16:56.687Z,91.5
2022-08-03T01:18:02.904Z,91.5
2022-08-03T01:19:09.107Z,91.5
2022-08-03T01:20:15.320Z,92
2022-08-03T01:21:21.516Z,92.5
2022-08-03T01:22:27.712Z,93
2022-08-03T01:23:33.972Z,92.5
2022-08-03T01:24:40.138Z,92.5
2022-08-03T01:25:46.355Z,93
2022-08-03T01:26:52.549Z,93
2022-08-03T01:27:58.750Z,94
2022-08-03T01:29:05.061Z,94.5
2022-08-03T01:30:11.328Z,95
2022-08-03T01:31:16.589Z,95
2022-08-03T01:32:22.819Z,95
2022-08-03T01:33:29.003Z,94.5
2022-08-03T01:34:35.210Z,95
2022-08-03T01:35:41.419Z,95
2022-08-03T01:36:47.611Z,94.5
2022-08-03T01:37:53.826Z,94
2022-08-03T01:39:00.027Z,94
2022-08-03T01:40:06.229Z,94.5
2022-08-03T01:41:12.432Z,94.5
2022-08-03T01:42:18.637Z,94.5
2022-08-03T01:43:24.851Z,94
2022-08-03T01:44:31.083Z,94.5
2022-08-03T01:45:37.269Z,94.5
2022-08-03T01:46:43.490Z,94
2022-08-03T01:47:49.692Z,94.5
2022-08-03T01:48:55.908Z,94
2022-08-03T01:50:02.109Z,95
2022-08-03T01:51:08.320Z,96
2022-08-03T01:52:14.529Z,96
2022-08-03T01:53:20.749Z,96.5
2022-08-03T01:54:26.968Z,96.5
2022-08-03T01:55:33.160Z,96.5
2022-08-03T01:56:39.368Z,96.5
2022-08-03T01:57:45.576Z,95
2022-08-03T01:58:51.860Z,95.5
2022-08-03T01:59:57.125Z,96
2022-08-03T02:01:03.363Z,96
2022-08-03T02:02:09.537Z,96
2022-08-03T02:03:15.748Z,96
2022-08-03T02:04:21.938Z,96
2022-08-03T02:05:28.140Z,96
2022-08-03T02:06:34.347Z,96
2022-08-03T02:07:40.554Z,96
2022-08-03T02:08:46.747Z,96
2022-08-03T02:09:52.961Z,96.5
2022-08-03T02:10:59.152Z,96.5
2022-08-03T02:12:05.369Z,97
2022-08-03T02:13:11.566Z,96.5
2022-08-03T02:14:17.770Z,96.5
2022-08-03T02:15:23.985Z,96
2022-08-03T02:16:30.194Z,96.5
2022-08-03T02:17:36.406Z,96.5
2022-08-03T02:18:42.628Z,96.5
2022-08-03T02:19:48.834Z,96.5
2022-08-03T02:20:55.047Z,97
2022-08-03T02:22:01.257Z,97.5
2022-08-03T02:23:07.464Z,97.5
2022-08-03T02:24:13.665Z,97.5
2022-08-03T02:25:19.865Z,97.5
2022-08-03T02:26:26.073Z,97.5
2022-08-03T02:27:32.360Z,97.5
2022-08-03T02:28:37.650Z,97
2022-08-03T02:29:43.857Z,97
2022-08-03T02:30:50.066Z,97
2022-08-03T02:31:56.312Z,97
2022-08-03T02:33:02.515Z,97
2022-08-03T02:34:08.701Z,97
2022-08-03T02:35:14.919Z,97.5
2022-08-03T02:36:21.137Z,97.5
2022-08-03T02:37:27.335Z,98
2022-08-03T02:38:33.544Z,98
2022-08-03T02:39:39.758Z,98
2022-08-03T02:40:45.980Z,98
2022-08-03T02:41:52.186Z,98.5
2022-08-03T02:42:58.390Z,98.5
2022-08-03T02:44:04.598Z,98.5
2022-08-03T02:45:10.827Z,98.5
2022-08-03T02:46:17.024Z,98.5
2022-08-03T02:47:23.243Z,98.5
2022-08-03T02:48:29.458Z,98.5
2022-08-03T02:49:35.663Z,98.5
2022-08-03T02:50:41.866Z,98.5
2022-08-03T02:51:48.079Z,98.5
2022-08-03T02:52:54.299Z,98.5
2022-08-03T02:54:00.502Z,98.5
2022-08-03T02:55:06.715Z,98.5
2022-08-03T02:56:13.021Z,98.5
2022-08-03T02:57:18.298Z,98.5
2022-08-03T02:58:24.512Z,98.5
2022-08-03T02:59:30.730Z,99
2022-08-03T03:00:36.939Z,99.5
2022-08-03T03:01:43.147Z,99.5
2022-08-03T03:02:49.361Z,99
2022-08-03T03:03:55.585Z,99
2022-08-03T03:05:01.793Z,99
2022-08-03T03:06:08.021Z,99
2022-08-03T03:07:14.224Z,99
2022-08-03T03:08:20.443Z,99
2022-08-03T03:09:26.651Z,99
2022-08-03T03:10:32.861Z,99
2022-08-03T03:11:39.084Z,99.5
2022-08-03T03:12:45.297Z,99.5
2022-08-03T03:13:51.503Z,99
2022-08-03T03:14:57.726Z,98
2022-08-03T03:16:03.937Z,97.5
2022-08-03T03:17:10.139Z,97
2022-08-03T03:18:16.360Z,97
2022-08-03T03:19:22.568Z,97
2022-08-03T03:20:28.789Z,97
2022-08-03T03:21:35.011Z,97.5
2022-08-03T03:22:41.219Z,98
2022-08-03T03:23:47.435Z,98.5
2022-08-03T03:24:53.750Z,99
2022-08-03T03:25:59.025Z,99.5
2022-08-03T03:27:05.244Z,99.5
2022-08-03T03:28:11.445Z,99.5
2022-08-03T03:29:17.656Z,99.5
2022-08-03T03:30:23.882Z,99.5
2022-08-03T03:31:30.081Z,99.5
2022-08-03T03:32:36.304Z,99.5
2022-08-03T03:33:42.528Z,99.5
2022-08-03T03:34:48.727Z,99.5
2022-08-03T03:35:54.943Z,99.5
2022-08-03T03:37:01.162Z,99.5
2022-08-03T03:38:07.378Z,99.5
2022-08-03T03:39:13.587Z,99
2022-08-03T03:40:19.808Z,99
2022-08-03T03:41:26.026Z,99.5
2022-08-03T03:42:32.232Z,99.5
2022-08-03T03:43:38.473Z,99.5
2022-08-03T03:44:44.675Z,99.5
2022-08-03T03:45:50.908Z,99.5
2022-08-03T03:46:57.116Z,99.5
2022-08-03T03:48:03.327Z,99.5
2022-08-03T03:49:09.548Z,99.5
2022-08-03T03:50:15.773Z,99.5
2022-08-03T03:51:21.985Z,99.5
2022-08-03T03:52:28.211Z,99.5
2022-08-03T03:53:34.509Z,99
2022-08-03T03:54:39.796Z,99
2022-08-03T03:55:46.007Z,99
2022-08-03T03:56:52.220Z,99
2022-08-03T03:57:58.441Z,99
2022-08-03T03:59:04.665Z,98.5
2022-08-03T04:00:10.864Z,98.5
2022-08-03T04:01:17.094Z,98.5
2022-08-03T04:02:23.307Z,98.5
2022-08-03T04:03:29.519Z,99
2022-08-03T04:04:35.726Z,99
2022-08-03T04:05:41.948Z,99
2022-08-03T04:06:48.158Z,99
2022-08-03T04:07:54.373Z,99
2022-08-03T04:09:00.573Z,98.5
2022-08-03T04:10:06.788Z,98.5
2022-08-03T04:11:12.990Z,98.5
2022-08-03T04:12:19.212Z,98.5
2022-08-03T04:13:25.414Z,98.5
2022-08-03T04:14:31.640Z,98.5
2022-08-03T04:15:37.836Z,98
2022-08-03T04:16:44.064Z,98
2022-08-03T04:17:50.266Z,97.5
2022-08-03T04:18:56.495Z,97.5
2022-08-03T04:20:02.706Z,97.5
2022-08-03T04:21:08.894Z,97.5
2022-08-03T04:22:15.202Z,97.5
2022-08-03T04:23:20.491Z,97.5
2022-08-03T04:24:26.697Z,97.5
2022-08-03T04:25:32.905Z,96.5
2022-08-03T04:26:39.117Z,95.5
2022-08-03T04:27:45.325Z,94.5
2022-08-03T04:28:51.541Z,94
2022-08-03T04:29:57.735Z,93.5
2022-08-03T04:31:03.936Z,93.5
2022-08-03T04:32:10.152Z,93.5
2022-08-03T04:33:16.365Z,93
2022-08-03T04:34:22.574Z,93
2022-08-03T04:35:28.780Z,93.5
2022-08-03T04:36:34.977Z,93
2022-08-03T04:37:41.194Z,93.5
2022-08-03T04:38:47.389Z,93
2022-08-03T04:39:53.606Z,92.5
2022-08-03T04:40:59.807Z,92
2022-08-03T04:42:06.003Z,92
2022-08-03T04:43:12.204Z,91.5
2022-08-03T04:44:18.419Z,91.5
2022-08-03T04:45:24.613Z,91.5
2022-08-03T04:46:30.796Z,91.5
2022-08-03T04:47:37.007Z,91.5
2022-08-03T04:48:43.213Z,91.5
2022-08-03T04:49:49.400Z,90.5
2022-08-03T04:50:54.624Z,88
2022-08-03T04:52:00.838Z,86.5
2022-08-03T04:53:07.022Z,85
2022-08-03T04:54:12.240Z,82
2022-08-03T04:55:18.434Z,78
2022-08-03T04:56:23.636Z,75.5
2022-08-03T04:57:29.815Z,72.5
2022-08-03T04:58:36.003Z,68.5
2022-08-03T04:59:42.189Z,66.5
2022-08-03T05:00:48.331Z,65
2022-08-03T05:01:54.492Z,62.5
2022-08-03T05:03:00.637Z,61.5
2022-08-03T05:04:06.782Z,61
2022-08-03T05:05:12.913Z,61.5
2022-08-03T05:06:19.054Z,61.5
2022-08-03T05:07:25.153Z,62
2022-08-03T05:08:31.263Z,62
2022-08-03T05:09:37.363Z,62.5
2022-08-03T05:10:43.458Z,63
2022-08-03T05:11:49.552Z,63.5
2022-08-03T05:12:55.662Z,66.5
2022-08-03T05:14:01.760Z,69.5
2022-08-03T05:15:07.856Z,71.5
2022-08-03T05:16:13.951Z,69.5
2022-08-03T05:17:20.047Z,66
2022-08-03T05:18:26.126Z,63.5
2022-08-03T05:19:32.215Z,61.5
2022-08-03T05:20:38.303Z,60
2022-08-03T05:21:44.371Z,59
2022-08-03T05:22:50.445Z,58.5
2022-08-03T05:23:56.501Z,58
2022-08-03T05:25:02.557Z,56.5
2022-08-03T05:26:08.622Z,55.5
2022-08-03T05:27:14.674Z,55
2022-08-03T05:28:20.733Z,54
2022-08-03T05:29:26.761Z,54.5
2022-08-03T05:30:32.788Z,55.5
2022-08-03T05:31:38.823Z,54
2022-08-03T05:32:44.835Z,54.5
2022-08-03T05:33:50.852Z,52.5
2022-08-03T05:34:56.870Z,52
2022-08-03T05:36:02.861Z,52
2022-08-03T05:37:08.934Z,51.5
2022-08-03T05:38:15.015Z,54
2022-08-03T05:39:21.086Z,55
2022-08-03T05:40:27.151Z,56.5
2022-08-03T05:41:33.203Z,57
2022-08-03T05:42:39.261Z,57.5
2022-08-03T05:43:45.314Z,57
2022-08-03T05:44:51.367Z,58
2022-08-03T05:45:57.415Z,56
2022-08-03T05:47:03.475Z,54
2022-08-03T05:48:09.510Z,54
2022-08-03T05:49:15.557Z,52
2022-08-03T05:50:21.593Z,54
2022-08-03T05:51:27.759Z,56.5
2022-08-03T05:52:33.915Z,57
2022-08-03T05:53:40.069Z,56
2022-08-03T05:54:46.238Z,56
2022-08-03T05:55:52.411Z,54.5
2022-08-03T05:56:58.555Z,52.5
2022-08-03T05:58:04.688Z,54
2022-08-03T05:59:10.823Z,55
2022-08-03T06:00:16.974Z,57.5
2022-08-03T06:01:23.121Z,58
2022-08-03T06:02:29.249Z,55.5
2022-08-03T06:03:35.408Z,52.5
2022-08-03T06:04:41.522Z,54
2022-08-03T06:07:16.263Z,54
2022-08-03T06:08:21.510Z,49.5
2022-08-03T06:09:27.451Z,50
2022-08-03T06:10:33.391Z,51
2022-08-03T06:11:39.318Z,52
2022-08-03T06:12:45.246Z,50.5
2022-08-03T06:13:51.176Z,50.5
2022-08-03T06:14:57.103Z,49.5
2022-08-03T06:16:03.038Z,51
2022-08-03T06:17:08.961Z,50
2022-08-03T06:18:14.886Z,48.5
2022-08-03T06:19:20.818Z,48.5
2022-08-03T06:20:26.725Z,49.5
2022-08-03T06:21:32.648Z,47.5
2022-08-03T06:22:38.578Z,48
2022-08-03T06:23:44.481Z,49
2022-08-03T06:24:50.393Z,49.5
2022-08-03T06:25:56.320Z,48
2022-08-03T06:27:02.218Z,49
2022-08-03T06:28:08.128Z,47
2022-08-03T06:29:14.044Z,47
2022-08-03T06:30:19.949Z,47
2022-08-03T06:31:25.860Z,46.5
2022-08-03T06:32:31.762Z,45
2022-08-03T06:33:37.672Z,46
2022-08-03T06:34:43.594Z,48
2022-08-03T06:35:49.559Z,48.5
2022-08-03T06:36:55.528Z,49
2022-08-03T06:38:01.519Z,48
2022-08-03T06:39:07.520Z,48.5
2022-08-03T06:40:13.472Z,49
2022-08-03T06:41:19.450Z,50.5
2022-08-03T06:42:25.452Z,47.5
2022-08-03T06:43:31.426Z,43
2022-08-03T06:44:37.380Z,45.5
2022-08-03T06:45:43.364Z,42
2022-08-03T06:46:49.332Z,41.5
2022-08-03T06:47:55.299Z,41.5
2022-08-03T06:49:01.294Z,41.5
2022-08-03T06:50:07.363Z,37.5
2022-08-03T06:51:13.436Z,38
2022-08-03T06:52:19.549Z,37.5
2022-08-03T06:53:25.613Z,37.5
2022-08-03T06:54:31.683Z,37
2022-08-03T06:55:37.751Z,36.5
2022-08-03T06:56:43.828Z,38
2022-08-03T06:57:49.929Z,37
2022-08-03T06:58:55.978Z,37
2022-08-03T07:00:02.053Z,36.5
2022-08-03T07:01:08.107Z,37
2022-08-03T07:02:14.173Z,36
2022-08-03T07:03:20.678Z,36.5
2022-08-03T07:04:26.546Z,36
2022-08-03T07:05:32.865Z,35.5
2022-08-03T07:06:39.168Z,36
2022-08-03T07:07:45.471Z,36
2022-08-03T07:08:51.786Z,35
2022-08-03T07:09:58.084Z,37
2022-08-03T07:11:04.403Z,41
2022-08-03T07:12:10.703Z,39
2022-08-03T07:13:17.018Z,38
2022-08-03T07:14:23.321Z,37
2022-08-03T07:15:29.634Z,38.5
2022-08-03T07:16:35.942Z,35
2022-08-03T07:17:42.261Z,35
2022-08-03T07:21:03.669Z,35
2022-08-03T07:22:57.165Z,36.5
2022-08-03T07:24:03.029Z,37
2022-08-03T07:25:08.886Z,35.5
2022-08-03T07:26:14.753Z,34.5
2022-08-03T07:27:20.618Z,37.5
2022-08-03T07:28:26.471Z,35.5
2022-08-03T07:29:32.326Z,36
2022-08-03T07:30:38.210Z,37
2022-08-03T07:31:44.054Z,35.5
2022-08-03T07:32:49.936Z,35
2022-08-03T07:33:55.791Z,37.5
2022-08-03T07:35:01.651Z,36.5
2022-08-03T07:36:07.524Z,37
2022-08-03T07:37:13.379Z,35.5
2022-08-03T07:38:19.245Z,34.5
2022-08-03T07:39:25.118Z,34
2022-08-03T07:40:30.970Z,36.5
2022-08-03T07:41:36.839Z,33
2022-08-03T07:42:42.707Z,32.5
2022-08-03T07:43:48.564Z,34
2022-08-03T07:44:54.449Z,36
2022-08-03T07:46:00.290Z,37.5
2022-08-03T07:47:06.163Z,37
2022-08-03T07:48:11.997Z,35.5
2022-08-03T07:49:17.847Z,36.5
2022-08-03T07:50:23.783Z,35.5
2022-08-03T07:51:29.717Z,35
2022-08-03T07:52:35.647Z,34.5
2022-08-03T07:53:41.587Z,36
2022-08-03T07:54:47.517Z,34.5
2022-08-03T07:55:53.454Z,34
2022-08-03T07:56:59.404Z,34
2022-08-03T07:58:05.321Z,35.5
2022-08-03T07:59:11.257Z,39.5
2022-08-03T08:00:17.200Z,40.5
2022-08-03T08:01:23.133Z,36.5
2022-08-03T08:02:29.073Z,34.5
2022-08-03T08:03:35.010Z,35.5
2022-08-03T08:04:41.075Z,35
2022-08-03T08:05:47.143Z,33.5
2022-08-03T08:06:53.233Z,34.5
2022-08-03T08:07:59.265Z,33
2022-08-03T08:09:05.330Z,32.5
2022-08-03T08:10:11.380Z,35
2022-08-03T08:11:17.455Z,33
2022-08-03T08:12:23.512Z,35
2022-08-03T08:13:29.574Z,36.5
2022-08-03T08:14:35.633Z,38
2022-08-03T08:15:41.698Z,37
2022-08-03T08:16:47.756Z,38.5
2022-08-03T08:17:53.818Z,36
2022-08-03T08:20:28.363Z,35.5
2022-08-03T08:21:34.675Z,33.5
2022-08-03T08:22:41.004Z,31.5
2022-08-03T08:23:47.317Z,33
2022-08-03T08:24:53.614Z,34
2022-08-03T08:25:59.926Z,36
2022-08-03T08:27:06.226Z,33
2022-08-03T08:28:12.530Z,33.5
2022-08-03T08:29:18.863Z,33.5
2022-08-03T08:30:25.145Z,35.5
2022-08-03T08:31:31.449Z,35
2022-08-03T08:32:37.761Z,33.5
2022-08-03T08:33:44.078Z,32
2022-08-03T08:37:05.505Z,31.5
2022-08-03T08:38:59.018Z,31.5
2022-08-03T08:40:04.885Z,32.5
2022-08-03T08:41:10.766Z,34.5
2022-08-03T08:42:16.637Z,36.5
2022-08-03T08:43:22.493Z,36.5
2022-08-03T08:44:28.344Z,33.5
2022-08-03T08:45:34.238Z,31.5
2022-08-03T08:46:40.102Z,32
2022-08-03T08:47:45.952Z,34.5
2022-08-03T08:48:51.847Z,35
2022-08-03T08:49:57.695Z,33.5
2022-08-03T08:51:03.578Z,35
2022-08-03T08:52:09.442Z,30
2022-08-03T08:53:15.318Z,29.5
2022-08-03T08:54:21.188Z,29
2022-08-03T08:55:27.073Z,28.5
2022-08-03T08:56:32.926Z,28.5
2022-08-03T08:57:38.814Z,30
2022-08-03T08:58:44.673Z,29.5
2022-08-03T08:59:50.542Z,26.5
2022-08-03T09:00:56.426Z,26.5
2022-08-03T09:02:02.305Z,26.5
2022-08-03T09:03:08.174Z,28.5
2022-08-03T09:04:14.045Z,27.5
2022-08-03T09:05:19.914Z,28
2022-08-03T09:06:25.843Z,26.5
2022-08-03T09:07:31.816Z,25.5
2022-08-03T09:08:37.751Z,27.5
2022-08-03T09:09:43.716Z,26.5
2022-08-03T09:10:49.601Z,28
2022-08-03T09:11:55.545Z,31.5
2022-08-03T09:13:01.487Z,28
2022-08-03T09:14:07.416Z,26.5
2022-08-03T09:15:13.355Z,27
2022-08-03T09:16:19.316Z,27.5
2022-08-03T09:17:25.252Z,27
2022-08-03T09:18:31.200Z,28
2022-08-03T09:19:37.132Z,30.5
2022-08-03T09:20:43.223Z,29.5
2022-08-03T09:21:49.297Z,28.5
2022-08-03T09:22:55.364Z,26.5
2022-08-03T09:24:01.458Z,28.5
2022-08-03T09:25:07.515Z,29
2022-08-03T09:26:13.579Z,28.5
2022-08-03T09:27:19.653Z,30
2022-08-03T09:28:25.736Z,30
2022-08-03T09:29:31.810Z,29
2022-08-03T09:30:37.894Z,28
2022-08-03T09:31:43.969Z,27.5
2022-08-03T09:32:50.055Z,29
2022-08-03T09:33:56.130Z,28.5
2022-08-03T09:35:02.445Z,28
2022-08-03T09:36:08.773Z,28.5
2022-08-03T09:37:15.116Z,31
2022-08-03T09:38:21.437Z,31.5
2022-08-03T09:39:27.764Z,32.5
2022-08-03T09:40:34.082Z,32.5
2022-08-03T09:41:40.397Z,32
2022-08-03T09:42:46.739Z,31
2022-08-03T09:43:53.066Z,32
2022-08-03T09:44:59.412Z,31.5
2022-08-03T09:46:05.751Z,29
2022-08-03T09:47:12.092Z,28
2022-08-03T09:48:18.437Z,28
2022-08-03T09:51:43.214Z,26.5
2022-08-03T09:53:33.519Z,26.5
2022-08-03T09:54:39.412Z,27.5
2022-08-03T09:55:45.309Z,27
2022-08-03T09:56:51.214Z,28.5
2022-08-03T09:57:57.104Z,28
2022-08-03T09:59:03.014Z,31.5
2022-08-03T10:00:08.896Z,30
2022-08-03T10:01:14.802Z,27.5
2022-08-03T10:02:20.690Z,30
2022-08-03T10:03:26.584Z,31
2022-08-03T10:04:32.482Z,31
2022-08-03T10:05:38.377Z,29
2022-08-03T10:06:44.285Z,28.5
2022-08-03T10:07:50.195Z,30.5
2022-08-03T10:08:56.082Z,29.5
2022-08-03T10:10:02.013Z,29
2022-08-03T10:11:07.902Z,31
2022-08-03T10:12:13.815Z,30.5
2022-08-03T10:13:19.728Z,28.5
2022-08-03T10:14:25.637Z,28
2022-08-03T10:15:31.545Z,28
2022-08-03T10:16:37.457Z,27
2022-08-03T10:17:43.412Z,28
2022-08-03T10:18:49.292Z,30
2022-08-03T10:19:55.211Z,30
2022-08-03T10:21:01.199Z,30
2022-08-03T10:22:07.200Z,28.5
2022-08-03T10:23:13.195Z,31
2022-08-03T10:24:19.180Z,31
2022-08-03T10:25:25.181Z,29.5
2022-08-03T10:26:31.212Z,28.5
2022-08-03T10:27:37.207Z,30.5
2022-08-03T10:28:43.211Z,30.5
2022-08-03T10:29:49.214Z,28.5
2022-08-03T10:30:55.218Z,30
2022-08-03T10:32:01.242Z,28
2022-08-03T10:33:07.230Z,29.5
2022-08-03T10:34:13.234Z,26
2022-08-03T10:35:19.359Z,25.5
2022-08-03T10:36:25.479Z,27
2022-08-03T10:37:31.613Z,27
2022-08-03T10:38:37.739Z,27
2022-08-03T10:39:43.864Z,25.5
2022-08-03T10:40:49.981Z,25.5
2022-08-03T10:41:56.105Z,24
2022-08-03T10:43:02.235Z,24
2022-08-03T10:44:08.352Z,24
2022-08-03T10:45:14.473Z,23.5
2022-08-03T10:46:20.608Z,24
2022-08-03T10:47:26.720Z,24
2022-08-03T10:48:32.854Z,25.5
2022-08-03T10:51:07.530Z,26.5
2022-08-03T10:52:12.785Z,28
2022-08-03T10:53:18.708Z,27.5
2022-08-03T10:54:24.610Z,28.5
2022-08-03T10:55:30.536Z,27.5
2022-08-03T10:56:36.472Z,26
2022-08-03T10:57:42.419Z,26
2022-08-03T10:58:48.300Z,26
2022-08-03T10:59:54.229Z,26
2022-08-03T11:01:00.148Z,26.5
2022-08-03T11:02:06.079Z,27
2022-08-03T11:03:12.010Z,27.5
2022-08-03T11:04:17.958Z,28.5
2022-08-03T11:05:23.859Z,27.5
2022-08-03T11:06:29.790Z,27
2022-08-03T11:07:35.729Z,27.5
2022-08-03T11:08:41.674Z,29.5
2022-08-03T11:09:47.571Z,28
2022-08-03T11:10:53.502Z,28
2022-08-03T11:11:59.430Z,30
2022-08-03T11:13:05.349Z,28.5
2022-08-03T11:14:11.275Z,28.5
2022-08-03T11:15:17.218Z,29.5
2022-08-03T11:16:23.138Z,29.5
2022-08-03T11:17:29.090Z,28
2022-08-03T11:18:35.010Z,26.5
2022-08-03T11:19:41.015Z,25
2022-08-03T11:20:47.031Z,27
2022-08-03T11:21:53.032Z,26
2022-08-03T11:22:59.052Z,25
2022-08-03T11:24:05.066Z,26.5
2022-08-03T11:25:11.057Z,26.5
2022-08-03T11:26:17.065Z,26.5
2022-08-03T11:27:23.082Z,27
2022-08-03T11:28:29.109Z,27
2022-08-03T11:29:35.095Z,29
2022-08-03T11:30:41.103Z,26
2022-08-03T11:31:47.111Z,24.5
2022-08-03T11:32:53.118Z,28.5
2022-08-03T11:33:59.250Z,24.5
2022-08-03T11:35:05.386Z,29
2022-08-03T11:36:11.536Z,27
2022-08-03T11:37:17.681Z,25
2022-08-03T11:38:23.779Z,26
2022-08-03T11:39:29.917Z,25
2022-08-03T11:40:36.053Z,26.5
2022-08-03T11:41:42.168Z,26.5
2022-08-03T11:42:48.306Z,27
2022-08-03T11:43:54.425Z,25
2022-08-03T11:45:00.554Z,25
2022-08-03T11:46:06.690Z,28
2022-08-03T11:47:12.885Z,28.5
2022-08-03T11:50:09.496Z,28.5
2022-08-03T11:51:14.759Z,28
2022-08-03T11:52:20.685Z,30
2022-08-03T11:53:26.619Z,25.5
2022-08-03T11:54:32.538Z,26.5
2022-08-03T11:55:38.472Z,25.5
2022-08-03T11:56:44.408Z,24
2022-08-03T11:57:50.357Z,25.5
2022-08-03T11:58:56.269Z,28
2022-08-03T12:00:02.208Z,27.5
2022-08-03T12:01:08.133Z,27
2022-08-03T12:02:14.057Z,26.5
2022-08-03T12:03:19.978Z,27
2022-08-03T12:04:25.925Z,27
2022-08-03T12:05:31.846Z,27.5
2022-08-03T12:06:37.785Z,28
2022-08-03T12:07:43.718Z,25
2022-08-03T12:08:49.679Z,25
2022-08-03T12:09:55.578Z,25
2022-08-03T12:11:01.508Z,25
2022-08-03T12:12:07.435Z,26.5
2022-08-03T12:13:13.380Z,24.5
2022-08-03T12:14:19.307Z,27
2022-08-03T12:15:25.223Z,25.5
2022-08-03T12:16:31.161Z,27
2022-08-03T12:17:37.097Z,26
2022-08-03T12:18:43.091Z,26
2022-08-03T12:19:49.101Z,27.5
2022-08-03T12:20:55.095Z,25
2022-08-03T12:22:01.097Z,25
2022-08-03T12:23:07.103Z,23
2022-08-03T12:24:13.137Z,22
2022-08-03T12:25:19.109Z,24.5
2022-08-03T12:26:25.109Z,23.5
2022-08-03T12:27:31.100Z,23.5
2022-08-03T12:28:37.106Z,24.5
2022-08-03T12:29:43.115Z,24.5
2022-08-03T12:30:49.119Z,27
2022-08-03T12:31:55.104Z,26.5
2022-08-03T12:33:01.254Z,30.5
2022-08-03T12:34:07.378Z,28.5
2022-08-03T12:35:13.506Z,27.5
2022-08-03T12:36:19.629Z,29
2022-08-03T12:37:25.752Z,27
2022-08-03T12:38:31.885Z,28
2022-08-03T12:39:38.011Z,27.5
2022-08-03T12:40:44.137Z,27.5
2022-08-03T12:41:50.269Z,29
2022-08-03T12:42:56.413Z,28.5
2022-08-03T12:44:02.530Z,27
2022-08-03T12:45:08.664Z,26.5
2022-08-03T12:46:14.785Z,26
2022-08-03T12:48:49.502Z,25
2022-08-03T12:49:54.792Z,26.5
2022-08-03T12:51:00.687Z,26.5
2022-08-03T12:52:06.613Z,29
2022-08-03T12:53:12.544Z,29
2022-08-03T12:54:18.478Z,28
2022-08-03T12:55:24.400Z,28
2022-08-03T12:56:30.336Z,27.5
2022-08-03T12:57:36.255Z,28
2022-08-03T12:58:42.179Z,25
2022-08-03T12:59:48.111Z,25
2022-08-03T13:00:54.044Z,24.5
2022-08-03T13:01:59.965Z,27
2022-08-03T13:03:05.915Z,25
2022-08-03T13:04:11.833Z,24.5
2022-08-03T13:05:17.775Z,25
2022-08-03T13:06:23.732Z,25.5
2022-08-03T13:07:29.636Z,27
2022-08-03T13:08:35.572Z,29.5
2022-08-03T13:09:41.505Z,26.5
2022-08-03T13:10:47.443Z,25
2022-08-03T13:11:53.377Z,26
2022-08-03T13:12:59.333Z,24
2022-08-03T13:14:05.247Z,24
2022-08-03T13:15:11.175Z,23.5
2022-08-03T13:16:17.094Z,24
2022-08-03T13:17:23.132Z,26
2022-08-03T13:18:29.112Z,27
2022-08-03T13:19:35.127Z,28.5
2022-08-03T13:20:41.110Z,28
2022-08-03T13:21:47.112Z,29
2022-08-03T13:22:53.109Z,27.5
2022-08-03T13:23:59.103Z,28
2022-08-03T13:25:05.117Z,27.5
2022-08-03T13:26:11.116Z,28
2022-08-03T13:27:17.136Z,27.5
2022-08-03T13:28:23.151Z,27
2022-08-03T13:29:29.145Z,26.5
2022-08-03T13:30:35.153Z,26.5
2022-08-03T13:31:41.291Z,26
2022-08-03T13:32:47.423Z,29
2022-08-03T13:33:53.568Z,26
2022-08-03T13:34:59.695Z,25.5
2022-08-03T13:36:05.835Z,28
2022-08-03T13:37:11.976Z,27
2022-08-03T13:38:18.112Z,25
2022-08-03T13:39:24.241Z,25
2022-08-03T13:40:30.395Z,27
2022-08-03T13:41:36.524Z,26.5
2022-08-03T13:42:42.653Z,26.5
2022-08-03T13:43:48.783Z,26.5
2022-08-03T13:44:54.923Z,24.5
2022-08-03T13:47:51.617Z,25.5
2022-08-03T13:48:56.844Z,24.5
2022-08-03T13:50:02.787Z,26
2022-08-03T13:51:08.703Z,27.5
2022-08-03T13:52:14.638Z,27
2022-08-03T13:53:20.614Z,26.5
2022-08-03T13:54:26.495Z,28
2022-08-03T13:55:32.427Z,26.5
2022-08-03T13:56:38.338Z,24
2022-08-03T13:57:44.265Z,24.5
2022-08-03T13:58:50.211Z,23.5
2022-08-03T13:59:56.126Z,26
2022-08-03T14:01:02.049Z,26
2022-08-03T14:02:07.969Z,27
2022-08-03T14:03:13.893Z,26
2022-08-03T14:04:19.829Z,27
2022-08-03T14:05:25.744Z,25.5
2022-08-03T14:06:31.674Z,27.5
2022-08-03T14:07:37.625Z,26.5
2022-08-03T14:08:43.534Z,27
2022-08-03T14:09:49.458Z,26.5
2022-08-03T14:10:55.395Z,27
2022-08-03T14:12:01.288Z,26
2022-08-03T14:13:07.216Z,26
2022-08-03T14:14:13.154Z,25
2022-08-03T14:15:19.077Z,26
2022-08-03T14:16:25.103Z,25
2022-08-03T14:17:31.090Z,27.5
2022-08-03T14:18:37.097Z,28.5
2022-08-03T14:19:43.099Z,26.5
2022-08-03T14:20:49.116Z,27.5
2022-08-03T14:21:55.117Z,28
2022-08-03T14:23:01.129Z,26.5
2022-08-03T14:24:07.143Z,26.5
2022-08-03T14:25:13.145Z,26.5
2022-08-03T14:26:19.176Z,27
2022-08-03T14:27:25.179Z,27
2022-08-03T14:28:31.189Z,28
2022-08-03T14:29:37.182Z,24.5
2022-08-03T14:30:43.335Z,24.5
2022-08-03T14:31:49.452Z,24
2022-08-03T14:32:55.590Z,25.5
2022-08-03T14:34:01.742Z,25
2022-08-03T14:35:07.879Z,24.5
2022-08-03T14:36:14.002Z,26
2022-08-03T14:37:20.117Z,25.5
2022-08-03T14:38:26.259Z,28.5
2022-08-03T14:39:32.378Z,27
2022-08-03T14:40:38.516Z,27
2022-08-03T14:41:44.661Z,26.5
2022-08-03T14:42:50.780Z,27
2022-08-03T14:43:56.919Z,26.5
2022-08-03T14:46:31.627Z,28
2022-08-03T14:47:36.900Z,27.5
2022-08-03T14:48:42.849Z,26.5
2022-08-03T14:50:10.265Z,27.5
2022-08-03T14:50:54.734Z,27.5
2022-08-03T14:52:00.673Z,27
2022-08-03T14:53:06.608Z,26
2022-08-03T14:54:12.545Z,25.5
2022-08-03T14:55:18.499Z,24.5
2022-08-03T14:56:24.422Z,24.5
2022-08-03T14:57:30.355Z,24.5
2022-08-03T14:58:36.300Z,24
2022-08-03T14:59:42.233Z,23.5
2022-08-03T15:00:48.170Z,23.5
2022-08-03T15:01:54.095Z,24.5
2022-08-03T15:03:00.030Z,25.5
2022-08-03T15:04:05.956Z,25.5
2022-08-03T15:05:11.896Z,27.5
2022-08-03T15:06:17.828Z,28
2022-08-03T15:07:23.760Z,28.5
2022-08-03T15:08:29.683Z,29.5
2022-08-03T15:09:35.615Z,30
2022-08-03T15:10:41.557Z,29
2022-08-03T15:11:47.493Z,29.5
2022-08-03T15:12:53.692Z,28.5
2022-08-03T15:13:59.386Z,26
2022-08-03T15:15:05.389Z,28.5
2022-08-03T15:16:11.410Z,27
2022-08-03T15:17:17.425Z,26.5
2022-08-03T15:18:23.486Z,26.5
2022-08-03T15:19:29.461Z,26.5
2022-08-03T15:20:35.483Z,29
2022-08-03T15:21:41.503Z,29.5
2022-08-03T15:22:47.506Z,28.5
2022-08-03T15:23:53.526Z,27.5
2022-08-03T15:24:59.538Z,25
2022-08-03T15:26:05.560Z,24
2022-08-03T15:27:11.580Z,25
2022-08-03T15:28:17.606Z,25.5